Time;durP1;ratioP1;P1;durP2;ratioP2;P2;SDS_P1;SDS_P2;PMS_P1;PMS_P2;Temp;Humidity;BMP_temperature;BMP_pressure;BME280_temperature;BME280_humidity;BME280_pressure;Samples;Min_cycle;Max_cycle;Signal;HPM_P1;HPM_P2
2023/10/03 00:02:32;;;;;;;18.70;7.90;;;;;;;;;;6275984;28;20076;-81
2023/10/03 00:05:35;;;;;;;20.17;8.52;;;;;;;;;;6271542;28;20067;-79
2023/10/03 00:08:38;;;;;;;25.70;9.15;;;;;;;;;;6278162;28;20044;-81
2023/10/03 00:11:40;;;;;;;27.88;8.55;;;;;;;;;;6279698;28;20046;-80
2023/10/03 00:14:42;;;;;;;19.10;8.27;;;;;;;;;;6282986;28;20101;-81
2023/10/03 00:17:44;;;;;;;18.88;7.72;;;;;;;;;;6274011;28;20040;-79
2023/10/03 00:20:47;;;;;;;17.58;7.47;;;;;;;;;;6272627;28;20056;-80
2023/10/03 00:23:49;;;;;;;18.00;6.80;;;;;;;;;;6282707;28;20071;-81
2023/10/03 00:26:53;;;;;;;13.15;6.90;;;;;;;;;;6250465;28;20085;-80
2023/10/03 00:29:55;;;;;;;17.27;7.25;;;;;;;;;;6248269;28;20037;-80
2023/10/03 00:32:58;;;;;;;20.65;8.20;;;;;;;;;;6258195;28;20045;-81
2023/10/03 00:36:00;;;;;;;21.65;9.27;;;;;;;;;;6252108;28;20052;-81
2023/10/03 00:39:06;;;;;;;19.80;8.25;;;;;;;;;;6258186;28;20112;-81
2023/10/03 00:42:09;;;;;;;19.20;8.77;;;;;;;;;;6254706;28;20041;-79
2023/10/03 00:45:11;;;;;;;17.65;8.68;;;;;;;;;;6247461;28;20045;-82
2023/10/03 00:48:13;;;;;;;18.10;8.73;;;;;;;;;;6260930;28;20049;-81
2023/10/03 00:51:16;;;;;;;19.23;8.40;;;;;;;;;;6254396;28;20242;-80
2023/10/03 00:54:18;;;;;;;18.05;7.95;;;;;;;;;;6231976;28;20067;-80
2023/10/03 00:57:22;;;;;;;17.90;7.25;;;;;;;;;;6242119;28;20068;-79
2023/10/03 01:00:25;;;;;;;17.27;8.90;;;;;;;;;;6234348;28;20045;-78
2023/10/03 01:03:31;;;;;;;17.65;7.95;;;;;;;;;;6239910;28;20164;-81
2023/10/03 01:06:34;;;;;;;21.45;8.40;;;;;;;;;;6254631;28;20915;-79
2023/10/03 01:09:35;;;;;;;14.55;6.57;;;;;;;;;;6250356;28;20328;-78
2023/10/03 01:12:37;;;;;;;11.48;6.22;;;;;;;;;;6269448;28;20045;-81
2023/10/03 01:15:39;;;;;;;15.40;7.13;;;;;;;;;;6281925;28;20388;-80
2023/10/03 01:18:42;;;;;;;15.68;8.02;;;;;;;;;;6258295;28;20045;-81
2023/10/03 01:21:47;;;;;;;14.50;6.95;;;;;;;;;;6273207;28;20452;-79
2023/10/03 01:24:50;;;;;;;19.75;8.07;;;;;;;;;;6277636;28;20418;-78
2023/10/03 01:27:52;;;;;;;19.50;8.60;;;;;;;;;;6279356;28;20052;-82
2023/10/03 01:30:54;;;;;;;18.65;7.68;;;;;;;;;;6274509;28;20048;-81
2023/10/03 01:33:55;;;;;;;15.60;6.95;;;;;;;;;;6275587;28;20068;-81
2023/10/03 01:36:58;;;;;;;14.68;7.18;;;;;;;;;;6278871;28;20040;-79
2023/10/03 01:39:59;;;;;;;15.85;7.53;;;;;;;;;;6271868;28;20040;-77
2023/10/03 01:43:02;;;;;;;19.45;7.72;;;;;;;;;;6269308;28;20051;-79
2023/10/03 01:46:04;;;;;;;17.20;7.80;;;;;;;;;;6271686;28;20122;-80
2023/10/03 01:49:06;;;;;;;19.38;7.32;;;;;;;;;;6273661;28;20045;-79
2023/10/03 01:52:08;;;;;;;16.73;7.10;;;;;;;;;;6279942;28;20059;-78
2023/10/03 01:55:12;;;;;;;14.98;7.70;;;;;;;;;;6271818;28;20098;-80
2023/10/03 01:58:14;;;;;;;16.05;7.78;;;;;;;;;;6271723;28;20049;-81
2023/10/03 02:01:15;;;;;;;18.15;7.72;;;;;;;;;;6259979;28;20037;-82
2023/10/03 02:04:17;;;;;;;18.80;7.97;;;;;;;;;;6272117;28;20041;-81
2023/10/03 02:07:20;;;;;;;18.52;7.97;;;;;;;;;;6258650;28;20052;-80
2023/10/03 02:10:22;;;;;;;17.25;7.78;;;;;;;;;;6277538;28;20123;-81
2023/10/03 02:13:24;;;;;;;19.38;8.32;;;;;;;;;;6274467;28;20046;-79
2023/10/03 02:16:28;;;;;;;19.80;8.02;;;;;;;;;;6271566;28;20067;-80
2023/10/03 02:19:30;;;;;;;17.95;7.70;;;;;;;;;;6264128;28;20132;-82
2023/10/03 02:22:32;;;;;;;19.02;8.65;;;;;;;;;;6251504;28;20051;-81
2023/10/03 02:25:37;;;;;;;19.15;8.65;;;;;;;;;;6275161;28;20057;-81
2023/10/03 02:28:40;;;;;;;21.20;8.82;;;;;;;;;;6270814;28;20065;-82
2023/10/03 02:31:46;;;;;;;18.83;8.77;;;;;;;;;;6262082;28;20102;-78
2023/10/03 02:34:48;;;;;;;16.27;8.07;;;;;;;;;;6263179;28;20502;-82
2023/10/03 02:37:52;;;;;;;20.90;8.32;;;;;;;;;;6256158;28;20057;-79
2023/10/03 02:41:01;;;;;;;20.30;8.43;;;;;;;;;;6258689;28;20067;-82
2023/10/03 02:44:07;;;;;;;18.42;8.32;;;;;;;;;;6262636;28;20056;-81
2023/10/03 02:47:10;;;;;;;17.83;7.97;;;;;;;;;;6264529;28;20048;-79
2023/10/03 02:50:13;;;;;;;15.25;7.70;;;;;;;;;;6265259;28;20051;-79
2023/10/03 02:53:19;;;;;;;16.73;8.00;;;;;;;;;;6281062;28;20048;-79
2023/10/03 02:56:22;;;;;;;18.67;8.45;;;;;;;;;;6274734;28;22400;-80
2023/10/03 02:59:24;;;;;;;16.98;8.13;;;;;;;;;;6260985;28;20056;-82
2023/10/03 03:02:26;;;;;;;17.42;8.23;;;;;;;;;;6271431;28;20096;-78
2023/10/03 03:05:35;;;;;;;15.85;6.78;;;;;;;;;;6268277;28;20048;-80
2023/10/03 03:08:39;;;;;;;18.35;7.72;;;;;;;;;;6281941;28;20040;-78
2023/10/03 03:11:48;;;;;;;20.85;7.65;;;;;;;;;;6266765;28;20040;-80
2023/10/03 03:14:52;;;;;;;17.05;8.05;;;;;;;;;;6276812;28;20048;-82
2023/10/03 03:17:54;;;;;;;22.90;8.60;;;;;;;;;;6280696;28;20049;-80
2023/10/03 03:20:59;;;;;;;20.17;7.88;;;;;;;;;;6276218;28;20561;-80
2023/10/03 03:24:08;;;;;;;17.13;7.75;;;;;;;;;;6281735;28;20037;-81
2023/10/03 03:27:12;;;;;;;21.33;8.40;;;;;;;;;;6263304;28;20587;-78
2023/10/03 03:33:31;;;;;;;20.35;9.63;;;;;;;;;;6275105;28;20132;-79
2023/10/03 03:36:38;;;;;;;21.70;10.15;;;;;;;;;;6281642;28;20502;-78
2023/10/03 03:39:51;;;;;;;20.17;8.98;;;;;;;;;;6282500;28;20056;-80
2023/10/03 03:42:53;;;;;;;20.20;8.60;;;;;;;;;;6269505;28;20059;-81
2023/10/03 03:45:55;;;;;;;19.17;8.65;;;;;;;;;;6278536;28;20068;-79
2023/10/03 03:48:58;;;;;;;17.27;8.40;;;;;;;;;;6277301;28;20045;-81
2023/10/03 03:52:00;;;;;;;21.83;8.63;;;;;;;;;;6273627;28;20517;-82
2023/10/03 03:55:03;;;;;;;25.35;7.85;;;;;;;;;;6273142;28;20045;-79
2023/10/03 03:58:11;;;;;;;21.17;8.68;;;;;;;;;;6267828;28;20048;-78
2023/10/03 04:01:23;;;;;;;18.55;8.32;;;;;;;;;;6272801;28;20055;-81
2023/10/03 04:04:25;;;;;;;18.10;7.78;;;;;;;;;;6267964;28;20052;-80
2023/10/03 04:07:27;;;;;;;17.45;8.30;;;;;;;;;;6279841;28;20108;-80
2023/10/03 04:10:28;;;;;;;16.27;8.02;;;;;;;;;;6278883;28;20060;-81
2023/10/03 04:13:30;;;;;;;21.38;8.35;;;;;;;;;;6274838;28;20075;-78
2023/10/03 04:16:38;;;;;;;20.08;8.13;;;;;;;;;;6273690;28;20048;-77
2023/10/03 04:19:40;;;;;;;18.63;8.23;;;;;;;;;;6259623;28;20119;-81
2023/10/03 04:22:42;;;;;;;16.17;8.48;;;;;;;;;;6279033;28;20044;-82
2023/10/03 04:25:44;;;;;;;18.85;8.80;;;;;;;;;;6282409;28;20057;-79
2023/10/03 04:28:46;;;;;;;18.33;9.02;;;;;;;;;;6280133;28;20041;-80
2023/10/03 04:31:48;;;;;;;15.88;7.90;;;;;;;;;;6275211;28;20041;-81
2023/10/03 04:34:50;;;;;;;20.98;8.38;;;;;;;;;;6278297;28;20041;-81
2023/10/03 04:37:52;;;;;;;19.83;8.43;;;;;;;;;;6279488;28;20048;-80
2023/10/03 04:40:54;;;;;;;20.23;9.40;;;;;;;;;;6283430;28;20053;-79
2023/10/03 04:43:56;;;;;;;24.30;9.05;;;;;;;;;;6274612;28;20033;-81
2023/10/03 04:46:58;;;;;;;20.25;8.05;;;;;;;;;;6272429;28;20507;-80
2023/10/03 04:50:01;;;;;;;18.30;8.55;;;;;;;;;;6268370;28;20064;-78
2023/10/03 04:53:05;;;;;;;17.25;8.07;;;;;;;;;;6285105;28;20044;-79
2023/10/03 04:56:07;;;;;;;22.05;8.23;;;;;;;;;;6279444;28;20041;-77
2023/10/03 04:59:09;;;;;;;18.88;8.02;;;;;;;;;;6264490;28;20055;-80
2023/10/03 05:02:11;;;;;;;17.33;7.45;;;;;;;;;;6282028;28;20045;-81
2023/10/03 05:05:18;;;;;;;19.27;7.57;;;;;;;;;;6281764;28;20045;-78
2023/10/03 05:08:20;;;;;;;21.77;8.75;;;;;;;;;;6278738;28;20040;-82
2023/10/03 05:11:22;;;;;;;17.42;7.78;;;;;;;;;;6273067;28;20047;-77
2023/10/03 05:14:24;;;;;;;17.77;8.07;;;;;;;;;;6272190;28;20041;-78
2023/10/03 05:17:27;;;;;;;21.58;9.25;;;;;;;;;;6275969;28;20049;-78
2023/10/03 05:20:37;;;;;;;19.20;8.20;;;;;;;;;;6272217;28;20835;-78
2023/10/03 05:23:41;;;;;;;17.10;7.93;;;;;;;;;;6282328;28;20045;-79
2023/10/03 05:26:43;;;;;;;18.40;8.07;;;;;;;;;;6282290;28;20048;-76
2023/10/03 05:29:45;;;;;;;18.38;7.90;;;;;;;;;;6262699;28;20044;-79
2023/10/03 05:32:46;;;;;;;16.70;8.10;;;;;;;;;;6259583;28;20458;-77
2023/10/03 05:35:48;;;;;;;20.67;8.77;;;;;;;;;;6280874;28;20105;-79
2023/10/03 05:38:50;;;;;;;17.45;8.32;;;;;;;;;;6280293;28;20530;-79
2023/10/03 05:41:56;;;;;;;20.05;8.85;;;;;;;;;;6267348;28;20056;-79
2023/10/03 05:44:58;;;;;;;19.55;8.25;;;;;;;;;;6267765;28;20050;-82
2023/10/03 05:47:59;;;;;;;15.38;7.88;;;;;;;;;;6278181;28;20044;-79
2023/10/03 05:51:02;;;;;;;22.93;8.33;;;;;;;;;;6274714;28;20110;-78
2023/10/03 05:54:06;;;;;;;17.20;7.47;;;;;;;;;;6272788;28;20113;-79
2023/10/03 05:57:08;;;;;;;19.20;8.65;;;;;;;;;;6277811;28;20041;-77
2023/10/03 06:00:16;;;;;;;19.83;9.48;;;;;;;;;;6276901;28;20064;-77
2023/10/03 06:03:18;;;;;;;20.70;8.82;;;;;;;;;;6262158;28;20044;-80
2023/10/03 06:06:35;;;;;;;18.27;8.68;;;;;;;;;;6276727;28;20047;-76
2023/10/03 06:09:37;;;;;;;19.47;9.27;;;;;;;;;;6262326;28;20174;-80
2023/10/03 06:12:41;;;;;;;18.27;8.55;;;;;;;;;;6271418;28;20958;-78
2023/10/03 06:15:46;;;;;;;22.92;9.35;;;;;;;;;;6275192;28;20071;-78
2023/10/03 06:18:48;;;;;;;22.00;8.82;;;;;;;;;;6272307;28;20043;-77
2023/10/03 06:21:50;;;;;;;23.27;9.27;;;;;;;;;;6261285;28;20122;-78
2023/10/03 06:24:56;;;;;;;19.08;9.10;;;;;;;;;;6264355;28;20618;-78
2023/10/03 06:27:58;;;;;;;20.58;8.77;;;;;;;;;;6265442;28;20714;-79
2023/10/03 06:31:00;;;;;;;20.73;9.40;;;;;;;;;;6273247;28;20501;-78
2023/10/03 06:34:02;;;;;;;22.10;9.52;;;;;;;;;;6272524;28;20039;-78
2023/10/03 06:37:04;;;;;;;21.97;9.67;;;;;;;;;;6274790;28;20056;-76
2023/10/03 06:40:07;;;;;;;23.00;9.27;;;;;;;;;;6276677;28;20139;-77
2023/10/03 06:43:09;;;;;;;20.98;9.70;;;;;;;;;;6274740;28;20052;-80
2023/10/03 06:46:11;;;;;;;19.75;9.48;;;;;;;;;;6278328;28;20041;-79
2023/10/03 06:49:13;;;;;;;21.77;10.07;;;;;;;;;;6269098;28;20091;-77
2023/10/03 06:52:15;;;;;;;21.40;10.43;;;;;;;;;;6280963;28;20045;-79
2023/10/03 06:55:17;;;;;;;18.73;9.23;;;;;;;;;;6272552;28;20047;-77
2023/10/03 06:58:19;;;;;;;20.50;9.45;;;;;;;;;;6272373;28;20047;-78
2023/10/03 07:01:20;;;;;;;23.45;9.98;;;;;;;;;;6277529;28;20448;-79
2023/10/03 07:04:22;;;;;;;19.35;9.35;;;;;;;;;;6270603;28;20047;-78
2023/10/03 07:07:24;;;;;;;18.35;9.18;;;;;;;;;;6269289;28;20131;-80
2023/10/03 07:10:27;;;;;;;22.77;9.43;;;;;;;;;;6277198;28;20053;-79
2023/10/03 07:13:29;;;;;;;21.23;9.52;;;;;;;;;;6270406;28;20088;-78
2023/10/03 07:16:37;;;;;;;19.83;8.93;;;;;;;;;;6278448;28;20491;-78
2023/10/03 07:19:39;;;;;;;17.77;8.52;;;;;;;;;;6264808;28;21931;-78
2023/10/03 07:22:41;;;;;;;18.40;9.05;;;;;;;;;;6278048;28;20036;-79
2023/10/03 07:25:43;;;;;;;20.42;9.07;;;;;;;;;;6278283;28;20100;-79
2023/10/03 07:28:44;;;;;;;20.02;9.45;;;;;;;;;;6270718;28;20056;-76
2023/10/03 07:31:46;;;;;;;17.33;8.82;;;;;;;;;;6277117;28;20045;-82
2023/10/03 07:34:48;;;;;;;17.65;9.40;;;;;;;;;;6279835;28;20055;-79
2023/10/03 07:37:51;;;;;;;20.48;8.98;;;;;;;;;;6277064;28;20054;-80
2023/10/03 07:40:53;;;;;;;;;;;;;;;;;;6269746;28;20047;-79
2023/10/03 07:43:55;;;;;;;19.25;8.95;;;;;;;;;;6268189;28;20286;-80
2023/10/03 07:46:57;;;;;;;19.77;8.85;;;;;;;;;;6271464;28;20048;-80
2023/10/03 07:50:00;;;;;;;19.98;8.68;;;;;;;;;;6273027;28;20051;-80
2023/10/03 07:53:03;;;;;;;17.58;8.57;;;;;;;;;;6270928;28;20072;-82
2023/10/03 07:56:25;;;;;;;20.65;8.77;;;;;;;;;;6272496;28;20047;-79
2023/10/03 07:59:27;;;;;;;19.33;8.25;;;;;;;;;;6262840;28;20052;-78
2023/10/03 08:02:32;;;;;;;17.95;8.55;;;;;;;;;;6264492;28;20060;-80
2023/10/03 08:05:34;;;;;;;20.42;8.48;;;;;;;;;;6268116;28;20286;-78
2023/10/03 08:08:36;;;;;;;21.52;8.88;;;;;;;;;;6270288;28;20502;-79
2023/10/03 08:11:38;;;;;;;20.02;8.95;;;;;;;;;;6266455;28;20052;-83
2023/10/03 08:14:40;;;;;;;19.17;9.13;;;;;;;;;;6265644;28;20052;-80
2023/10/03 08:17:45;;;;;;;17.52;8.38;;;;;;;;;;6276544;28;20040;-83
2023/10/03 08:20:53;;;;;;;16.33;8.02;;;;;;;;;;6266867;28;20040;-81
2023/10/03 08:23:57;;;;;;;16.73;7.88;;;;;;;;;;6267087;28;20235;-76
2023/10/03 08:26:59;;;;;;;;;;;;;;;;;;6263137;28;20055;-79
2023/10/03 08:30:03;;;;;;;13.00;7.18;;;;;;;;;;6247865;28;19927;-81
2023/10/03 08:33:05;;;;;;;16.13;7.68;;;;;;;;;;6268218;28;20044;-80
2023/10/03 08:36:14;;;;;;;14.53;7.20;;;;;;;;;;6270406;28;20045;-80
2023/10/03 08:39:17;;;;;;;14.77;7.13;;;;;;;;;;6267981;28;20129;-78
2023/10/03 08:42:35;;;;;;;15.07;7.80;;;;;;;;;;6262617;28;20048;-80
2023/10/03 08:45:43;;;;;;;12.13;6.80;;;;;;;;;;6264050;28;20454;-81
2023/10/03 08:48:46;;;;;;;14.93;7.05;;;;;;;;;;6273938;28;20579;-80
2023/10/03 08:51:48;;;;;;;11.02;6.30;;;;;;;;;;6273865;28;20073;-80
2023/10/03 08:54:54;;;;;;;10.90;6.45;;;;;;;;;;6272331;28;20040;-77
2023/10/03 08:58:00;;;;;;;12.27;6.70;;;;;;;;;;6270062;28;20122;-78
2023/10/03 09:01:02;;;;;;;12.40;6.63;;;;;;;;;;6266332;28;20179;-80
2023/10/03 09:04:15;;;;;;;10.77;5.97;;;;;;;;;;6261166;28;20658;-78
2023/10/03 09:07:17;;;;;;;;;;;;;;;;;;6272075;28;20048;-79
2023/10/03 09:10:23;;;;;;;11.05;5.78;;;;;;;;;;6273529;28;19920;-76
2023/10/03 09:13:28;;;;;;;12.82;6.55;;;;;;;;;;6268217;28;20049;-82
2023/10/03 09:16:30;;;;;;;15.18;7.40;;;;;;;;;;6274076;28;20047;-81
2023/10/03 09:19:42;;;;;;;9.75;6.15;;;;;;;;;;6278496;28;20033;-80
2023/10/03 09:22:46;;;;;;;10.93;6.57;;;;;;;;;;6272705;28;20041;-81
2023/10/03 09:25:54;;;;;;;9.60;6.00;;;;;;;;;;6279617;28;20063;-77
2023/10/03 09:28:58;;;;;;;12.23;6.07;;;;;;;;;;6271947;28;20044;-80
2023/10/03 09:32:14;;;;;;;12.38;6.50;;;;;;;;;;6261072;28;20454;-80
2023/10/03 09:35:16;;;;;;;12.13;6.18;;;;;;;;;;6274620;28;20063;-80
2023/10/03 09:38:25;;;;;;;10.50;5.68;;;;;;;;;;6274618;28;20056;-77
2023/10/03 09:41:29;;;;;;;10.60;5.50;;;;;;;;;;6272771;28;20040;-78
2023/10/03 09:44:31;;;;;;;8.35;5.70;;;;;;;;;;6263958;28;20041;-79
2023/10/03 09:47:34;;;;;;;11.40;5.60;;;;;;;;;;6270767;28;20043;-80
2023/10/03 09:50:51;;;;;;;10.13;5.70;;;;;;;;;;6262616;28;20429;-79
2023/10/03 09:53:56;;;;;;;10.95;5.68;;;;;;;;;;6268793;28;20037;-78
2023/10/03 09:57:00;;;;;;;10.20;5.75;;;;;;;;;;6264612;28;20104;-78
2023/10/03 10:00:23;;;;;;;10.13;5.68;;;;;;;;;;6263718;28;20044;-77
2023/10/03 10:03:36;;;;;;;10.82;5.72;;;;;;;;;;6262399;28;20045;-78
2023/10/03 10:06:47;;;;;;;9.63;5.38;;;;;;;;;;6264817;28;20053;-79
2023/10/03 10:10:01;;;;;;;11.80;5.82;;;;;;;;;;6268151;28;20053;-77
2023/10/03 10:13:13;;;;;;;10.23;5.50;;;;;;;;;;6268715;28;20709;-78
2023/10/03 10:16:20;;;;;;;13.23;6.53;;;;;;;;;;6282445;28;20418;-79
2023/10/03 10:19:24;;;;;;;10.32;5.63;;;;;;;;;;6275939;28;20062;-79
2023/10/03 10:22:58;;;;;;;14.48;5.95;;;;;;;;;;6280980;28;20049;-77
2023/10/03 10:26:26;;;;;;;9.63;5.57;;;;;;;;;;6274385;28;20040;-78
2023/10/03 10:29:33;;;;;;;8.73;5.13;;;;;;;;;;6274050;28;20518;-78
2023/10/03 10:32:36;;;;;;;10.98;6.75;;;;;;;;;;6270628;28;20049;-78
2023/10/03 10:36:03;;;;;;;10.88;6.70;;;;;;;;;;6277569;28;20521;-79
2023/10/03 10:39:04;;;;;;;12.82;6.80;;;;;;;;;;6275700;28;20067;-77
2023/10/03 10:42:10;;;;;;;9.65;6.07;;;;;;;;;;6271593;28;20126;-80
2023/10/03 10:45:21;;;;;;;11.93;5.28;;;;;;;;;;6266638;28;20044;-77
2023/10/03 10:48:39;;;;;;;10.18;5.28;;;;;;;;;;6266258;28;20056;-76
2023/10/03 10:51:54;;;;;;;10.05;5.93;;;;;;;;;;6275202;28;20533;-80
2023/10/03 10:54:56;;;;;;;7.90;5.00;;;;;;;;;;6269358;28;20460;-79
2023/10/03 10:58:12;;;;;;;11.15;5.07;;;;;;;;;;6267089;28;20056;-81
2023/10/03 11:01:16;;;;;;;9.25;5.20;;;;;;;;;;6274856;28;20503;-77
2023/10/03 11:04:25;;;;;;;8.10;4.50;;;;;;;;;;6277073;28;20039;-76
2023/10/03 11:07:29;;;;;;;8.80;5.32;;;;;;;;;;6279989;28;20055;-77
2023/10/03 11:10:30;;;;;;;9.80;5.15;;;;;;;;;;6252622;28;20046;-77
2023/10/03 11:13:45;;;;;;;8.00;4.70;;;;;;;;;;6251154;28;20047;-78
2023/10/03 11:16:47;;;;;;;8.20;4.53;;;;;;;;;;6258602;28;20068;-76
2023/10/03 11:19:55;;;;;;;8.98;4.60;;;;;;;;;;6266734;28;20032;-77
2023/10/03 11:22:57;;;;;;;6.82;4.38;;;;;;;;;;6279566;28;20055;-77
2023/10/03 11:25:59;;;;;;;8.43;4.47;;;;;;;;;;6286120;28;20052;-77
2023/10/03 11:29:01;;;;;;;7.13;4.15;;;;;;;;;;6282095;28;20048;-78
2023/10/03 11:32:05;;;;;;;7.37;4.63;;;;;;;;;;6283948;28;20131;-79
2023/10/03 11:35:18;;;;;;;8.20;4.63;;;;;;;;;;6276723;28;21062;-80
2023/10/03 11:38:19;;;;;;;8.32;4.95;;;;;;;;;;6275335;28;20052;-78
2023/10/03 11:41:31;;;;;;;9.65;4.20;;;;;;;;;;6266970;28;20059;-79
2023/10/03 11:44:33;;;;;;;9.18;4.10;;;;;;;;;;6266315;28;20928;-78
2023/10/03 11:47:35;;;;;;;8.32;4.68;;;;;;;;;;6275909;28;20052;-80
2023/10/03 11:50:38;;;;;;;6.68;4.57;;;;;;;;;;6276322;28;20053;-78
2023/10/03 11:53:40;;;;;;;;;;;;;;;;;;6269704;28;20045;-75
2023/10/03 11:56:46;;;;;;;9.20;4.05;;;;;;;;;;6270710;28;19924;-79
2023/10/03 11:59:48;;;;;;;9.48;4.30;;;;;;;;;;6261815;28;20048;-80
2023/10/03 12:02:51;;;;;;;6.53;4.10;;;;;;;;;;6271475;28;20513;-79
2023/10/03 12:05:56;;;;;;;;;;;;;;;;;;6275237;28;20049;-80
2023/10/03 12:08:58;;;;;;;5.72;4.13;;;;;;;;;;6255576;28;20391;-77
2023/10/03 12:12:00;;;;;;;6.75;4.05;;;;;;;;;;6268126;28;20151;-79
2023/10/03 12:15:03;;;;;;;8.52;4.40;;;;;;;;;;6265096;28;20876;-78
2023/10/03 12:18:05;;;;;;;7.18;4.40;;;;;;;;;;6273444;28;20040;-79
2023/10/03 12:21:06;;;;;;;10.47;4.67;;;;;;;;;;6276269;28;20044;-78
2023/10/03 12:24:08;;;;;;;6.72;5.10;;;;;;;;;;6274392;28;20120;-78
2023/10/03 12:27:10;;;;;;;7.53;4.80;;;;;;;;;;6269619;28;20048;-76
2023/10/03 12:30:15;;;;;;;7.57;5.00;;;;;;;;;;6267729;28;20067;-76
2023/10/03 12:33:18;;;;;;;9.65;5.22;;;;;;;;;;6273051;28;20146;-77
2023/10/03 12:36:21;;;;;;;8.70;4.75;;;;;;;;;;6276363;28;20037;-75
2023/10/03 12:39:24;;;;;;;6.93;4.47;;;;;;;;;;6265735;28;20040;-78
2023/10/03 12:42:28;;;;;;;9.98;4.70;;;;;;;;;;6272309;28;20439;-76
2023/10/03 12:45:30;;;;;;;7.90;4.47;;;;;;;;;;6271798;28;20045;-78
2023/10/03 12:48:32;;;;;;;6.90;4.40;;;;;;;;;;6272617;28;20163;-76
2023/10/03 12:51:34;;;;;;;8.07;3.28;;;;;;;;;;6275954;28;20040;-76
2023/10/03 12:54:36;;;;;;;3.88;2.40;;;;;;;;;;6266836;28;20052;-78
2023/10/03 12:57:37;;;;;;;4.15;2.63;;;;;;;;;;6262174;28;20052;-82
2023/10/03 13:00:41;;;;;;;3.17;2.50;;;;;;;;;;6267804;28;20045;-76
2023/10/03 13:03:46;;;;;;;3.58;2.25;;;;;;;;;;6272330;28;20044;-80
2023/10/03 13:06:50;;;;;;;4.07;2.03;;;;;;;;;;6255915;28;20045;-79
2023/10/03 13:09:51;;;;;;;;;;;;;;;;;;6281551;28;20041;-80
2023/10/03 13:12:54;;;;;;;4.45;2.45;;;;;;;;;;6264227;28;19928;-81
2023/10/03 13:15:57;;;;;;;3.88;2.50;;;;;;;;;;6273222;28;20415;-76
2023/10/03 13:19:00;;;;;;;4.30;2.07;;;;;;;;;;6270143;28;20126;-80
2023/10/03 13:22:03;;;;;;;4.13;2.25;;;;;;;;;;6265016;28;20442;-77
2023/10/03 13:25:07;;;;;;;4.22;2.15;;;;;;;;;;6263960;28;20493;-79
2023/10/03 13:28:12;;;;;;;3.15;2.10;;;;;;;;;;6255296;28;20040;-77
2023/10/03 13:31:13;;;;;;;2.72;1.98;;;;;;;;;;6270404;28;20659;-80
2023/10/03 13:34:16;;;;;;;3.00;1.88;;;;;;;;;;6264549;28;20147;-78
2023/10/03 13:37:18;;;;;;;3.00;2.00;;;;;;;;;;6273023;28;20044;-76
2023/10/03 13:40:21;;;;;;;2.45;2.00;;;;;;;;;;6255841;28;20045;-78
2023/10/03 13:43:27;;;;;;;2.63;1.92;;;;;;;;;;6266799;28;20057;-81
2023/10/03 13:46:32;;;;;;;2.65;2.03;;;;;;;;;;6262715;28;20237;-78
2023/10/03 13:49:33;;;;;;;2.10;1.90;;;;;;;;;;6270604;28;20056;-78
2023/10/03 13:52:37;;;;;;;3.20;2.20;;;;;;;;;;6267615;28;20057;-81
2023/10/03 13:55:39;;;;;;;2.97;2.10;;;;;;;;;;6269209;28;20045;-80
2023/10/03 13:58:40;;;;;;;2.75;2.40;;;;;;;;;;6271337;28;20423;-82
2023/10/03 14:01:42;;;;;;;2.95;2.60;;;;;;;;;;6273705;28;20040;-79
2023/10/03 14:04:44;;;;;;;3.22;2.22;;;;;;;;;;6251346;28;20041;-82
2023/10/03 14:07:47;;;;;;;;;;;;;;;;;;6245180;28;20196;-79
2023/10/03 14:10:49;;;;;;;3.05;2.78;;;;;;;;;;6248825;28;20002;-78
2023/10/03 14:13:52;;;;;;;3.10;2.87;;;;;;;;;;6237907;28;20038;-80
2023/10/03 14:17:00;;;;;;;3.15;2.70;;;;;;;;;;6264384;28;21008;-84
2023/10/03 14:20:01;;;;;;;4.45;2.65;;;;;;;;;;6284397;28;20036;-80
2023/10/03 14:23:03;;;;;;;3.38;3.05;;;;;;;;;;6285601;28;20443;-79
2023/10/03 14:26:05;;;;;;;5.00;3.28;;;;;;;;;;6290080;28;20060;-81
2023/10/03 14:29:07;;;;;;;3.53;2.67;;;;;;;;;;6280919;28;20048;-78
2023/10/03 14:32:10;;;;;;;3.17;2.10;;;;;;;;;;6287267;28;20227;-78
2023/10/03 14:35:12;;;;;;;2.47;1.70;;;;;;;;;;6281402;28;20041;-78
2023/10/03 14:38:15;;;;;;;1.70;1.42;;;;;;;;;;6279141;28;20049;-81
2023/10/03 14:41:19;;;;;;;2.75;1.50;;;;;;;;;;6286626;28;20142;-79
2023/10/03 14:44:20;;;;;;;1.40;1.20;;;;;;;;;;6268787;28;20066;-80
2023/10/03 14:47:22;;;;;;;2.63;1.50;;;;;;;;;;6278250;28;20037;-79
2023/10/03 14:50:24;;;;;;;2.42;1.50;;;;;;;;;;6267520;28;20056;-79
2023/10/03 14:53:27;;;;;;;1.88;1.50;;;;;;;;;;6272968;28;20045;-81
2023/10/03 14:56:29;;;;;;;1.67;1.58;;;;;;;;;;6267457;28;20045;-80
2023/10/03 14:59:30;;;;;;;3.85;2.20;;;;;;;;;;6270706;28;20048;-78
2023/10/03 15:02:32;;;;;;;2.10;1.90;;;;;;;;;;6273215;28;20045;-78
2023/10/03 15:05:34;;;;;;;2.90;2.25;;;;;;;;;;6276909;28;20064;-82
2023/10/03 15:08:36;;;;;;;2.92;2.17;;;;;;;;;;6278843;28;20060;-80
2023/10/03 15:11:38;;;;;;;3.33;1.83;;;;;;;;;;6283220;28;20059;-82
2023/10/03 15:14:40;;;;;;;3.00;2.28;;;;;;;;;;6267829;28;20067;-80
2023/10/03 15:17:42;;;;;;;2.17;1.95;;;;;;;;;;6289646;28;20052;-78
2023/10/03 15:20:45;;;;;;;2.42;2.15;;;;;;;;;;6287443;28;20044;-82
2023/10/03 15:23:46;;;;;;;2.70;2.50;;;;;;;;;;6281679;28;20120;-80
2023/10/03 15:26:48;;;;;;;3.05;2.30;;;;;;;;;;6284613;28;20071;-83
2023/10/03 15:29:50;;;;;;;3.07;1.97;;;;;;;;;;6276501;28;20048;-81
2023/10/03 15:32:52;;;;;;;1.83;1.63;;;;;;;;;;6280427;28;20705;-79
2023/10/03 15:35:55;;;;;;;2.53;1.50;;;;;;;;;;6287996;28;20044;-78
2023/10/03 15:38:57;;;;;;;2.75;1.60;;;;;;;;;;6268667;28;20132;-78
2023/10/03 15:41:59;;;;;;;4.25;1.50;;;;;;;;;;6277323;28;20059;-82
2023/10/03 15:45:04;;;;;;;2.72;1.38;;;;;;;;;;6280127;28;20732;-81
2023/10/03 15:48:09;;;;;;;3.72;1.38;;;;;;;;;;6285389;28;20048;-81
2023/10/03 15:51:14;;;;;;;1.65;1.50;;;;;;;;;;6279449;28;20049;-79
2023/10/03 15:54:16;;;;;;;4.13;1.50;;;;;;;;;;6272490;28;20040;-83
2023/10/03 15:57:19;;;;;;;3.13;1.60;;;;;;;;;;6249986;28;20037;-78
2023/10/03 16:00:20;;;;;;;1.73;1.57;;;;;;;;;;6271305;28;20132;-82
2023/10/03 16:03:22;;;;;;;3.92;2.00;;;;;;;;;;6273909;28;20056;-82
2023/10/03 16:06:24;;;;;;;2.63;1.83;;;;;;;;;;6279002;28;20102;-81
2023/10/03 16:09:26;;;;;;;2.72;1.77;;;;;;;;;;6278153;28;20438;-82
2023/10/03 16:12:30;;;;;;;3.70;1.65;;;;;;;;;;6275441;28;20061;-80
2023/10/03 16:15:33;;;;;;;2.05;1.83;;;;;;;;;;6275168;28;20049;-80
2023/10/03 16:18:36;;;;;;;2.83;1.77;;;;;;;;;;6270274;28;20077;-78
2023/10/03 16:21:41;;;;;;;3.25;1.85;;;;;;;;;;6269064;28;20155;-83
2023/10/03 16:24:44;;;;;;;3.08;1.73;;;;;;;;;;6279610;28;20041;-81
2023/10/03 16:27:46;;;;;;;2.92;1.45;;;;;;;;;;6281741;28;20167;-82
2023/10/03 16:30:48;;;;;;;4.13;1.60;;;;;;;;;;6284352;28;20099;-80
2023/10/03 16:33:50;;;;;;;3.10;1.80;;;;;;;;;;6287089;28;20063;-81
2023/10/03 16:36:52;;;;;;;3.10;1.70;;;;;;;;;;6289611;28;20135;-81
2023/10/03 16:39:54;;;;;;;3.45;1.58;;;;;;;;;;6286172;28;20048;-83
2023/10/03 16:42:56;;;;;;;1.85;1.60;;;;;;;;;;6274216;28;20048;-82
2023/10/03 16:46:03;;;;;;;3.35;1.67;;;;;;;;;;6277031;28;20041;-83
2023/10/03 16:49:06;;;;;;;2.33;1.45;;;;;;;;;;6284524;28;20044;-81
2023/10/03 16:52:08;;;;;;;2.05;1.40;;;;;;;;;;6283824;28;20044;-83
2023/10/03 16:55:10;;;;;;;3.35;1.50;;;;;;;;;;6272044;28;20518;-81
2023/10/03 16:58:12;;;;;;;3.53;1.98;;;;;;;;;;6271876;28;20037;-82
2023/10/03 17:01:14;;;;;;;2.35;1.65;;;;;;;;;;6274330;28;20052;-81
2023/10/03 17:04:16;;;;;;;2.83;1.60;;;;;;;;;;6280019;28;20470;-82
2023/10/03 17:07:18;;;;;;;2.38;1.45;;;;;;;;;;6273747;28;20044;-81
2023/10/03 17:10:20;;;;;;;3.38;1.52;;;;;;;;;;6256267;28;20114;-82
2023/10/03 17:13:22;;;;;;;2.33;1.40;;;;;;;;;;6262364;28;20191;-78
2023/10/03 17:16:24;;;;;;;2.85;1.50;;;;;;;;;;6267032;28;20533;-81
2023/10/03 17:19:25;;;;;;;2.88;1.20;;;;;;;;;;6276086;28;20060;-80
2023/10/03 17:22:27;;;;;;;2.40;1.23;;;;;;;;;;6245599;28;20132;-82
2023/10/03 17:25:30;;;;;;;2.45;1.10;;;;;;;;;;6264441;28;20041;-80
2023/10/03 17:28:32;;;;;;;2.75;1.50;;;;;;;;;;6262735;28;20056;-81
2023/10/03 17:31:35;;;;;;;3.10;1.02;;;;;;;;;;6264009;28;20048;-80
2023/10/03 17:34:36;;;;;;;2.05;1.00;;;;;;;;;;6266627;28;20060;-82
2023/10/03 17:37:39;;;;;;;2.30;1.00;;;;;;;;;;6270967;28;20048;-79
2023/10/03 17:40:41;;;;;;;2.63;1.10;;;;;;;;;;6270844;28;20044;-77
2023/10/03 17:43:44;;;;;;;2.13;1.02;;;;;;;;;;6268797;28;20036;-76
2023/10/03 17:46:45;;;;;;;4.00;1.30;;;;;;;;;;6269307;28;20235;-77
2023/10/03 17:49:48;;;;;;;2.33;0.98;;;;;;;;;;6280667;28;20298;-79
2023/10/03 17:52:52;;;;;;;3.47;1.30;;;;;;;;;;6281879;28;20058;-79
2023/10/03 17:55:55;;;;;;;1.48;1.08;;;;;;;;;;6275020;28;20044;-79
2023/10/03 17:59:00;;;;;;;;;;;;;;;;;;6270944;28;20061;-81
2023/10/03 18:02:02;;;;;;;1.40;1.00;;;;;;;;;;6255476;28;19928;-80
2023/10/03 18:05:05;;;;;;;3.88;1.35;;;;;;;;;;6280835;28;20049;-80
2023/10/03 18:08:07;;;;;;;4.30;1.48;;;;;;;;;;6278974;28;20059;-77
2023/10/03 18:11:09;;;;;;;3.42;1.10;;;;;;;;;;6271982;28;20048;-81
2023/10/03 18:14:11;;;;;;;2.28;1.17;;;;;;;;;;6276618;28;20119;-79
2023/10/03 18:17:14;;;;;;;2.75;0.98;;;;;;;;;;6266019;28;20161;-79
2023/10/03 18:20:15;;;;;;;2.78;1.25;;;;;;;;;;6259377;28;20048;-81